sensor_id;sensor_type;location;lat;lon;timestamp;pressure;altitude;pressure_sealevel;temperature;humidity
15007;BME280;7599;50.748;13.142;2023-10-09T00:01:10;96111.44;;;17.87;55.17
15007;BME280;7599;50.748;13.142;2023-10-09T00:04:16;96105.31;;;17.90;55.33
15007;BME280;7599;50.748;13.142;2023-10-09T00:07:19;96092.97;;;17.77;55.40
15007;BME280;7599;50.748;13.142;2023-10-09T00:10:26;96102.13;;;17.88;55.27
15007;BME280;7599;50.748;13.142;2023-10-09T00:13:37;96099.41;;;17.88;55.28
15007;BME280;7599;50.748;13.142;2023-10-09T00:16:45;96088.22;;;17.90;54.85
15007;BME280;7599;50.748;13.142;2023-10-09T00:19:50;96102.13;;;17.88;54.90
15007;BME280;7599;50.748;13.142;2023-10-09T00:22:56;96088.41;;;17.81;55.29
15007;BME280;7599;50.748;13.142;2023-10-09T00:26:01;96097.44;;;17.85;54.91
15007;BME280;7599;50.748;13.142;2023-10-09T00:29:17;96078.03;;;17.87;55.35
15007;BME280;7599;50.748;13.142;2023-10-09T00:32:24;96062.09;;;17.85;54.99
15007;BME280;7599;50.748;13.142;2023-10-09T00:35:28;96034.13;;;17.69;55.26
15007;BME280;7599;50.748;13.142;2023-10-09T00:38:48;96028.16;;;17.79;55.58
15007;BME280;7599;50.748;13.142;2023-10-09T00:41:54;96034.22;;;17.72;54.96
15007;BME280;7599;50.748;13.142;2023-10-09T00:45:00;96057.78;;;17.84;55.38
15007;BME280;7599;50.748;13.142;2023-10-09T00:48:05;96030.28;;;17.70;54.98
15007;BME280;7599;50.748;13.142;2023-10-09T00:51:10;96039.53;;;17.84;55.22
15007;BME280;7599;50.748;13.142;2023-10-09T00:54:20;96044.53;;;17.82;54.97
15007;BME280;7599;50.748;13.142;2023-10-09T00:57:30;96030.59;;;17.84;54.91
15007;BME280;7599;50.748;13.142;2023-10-09T01:00:35;96041.47;;;17.84;54.91
15007;BME280;7599;50.748;13.142;2023-10-09T01:03:48;96017.09;;;17.72;54.92
15007;BME280;7599;50.748;13.142;2023-10-09T01:06:54;96017.34;;;17.82;55.18
15007;BME280;7599;50.748;13.142;2023-10-09T01:10:10;96008.34;;;17.78;54.72
15007;BME280;7599;50.748;13.142;2023-10-09T01:13:15;95979.69;;;17.65;55.28
15007;BME280;7599;50.748;13.142;2023-10-09T01:16:21;96009.19;;;17.82;55.19
15007;BME280;7599;50.748;13.142;2023-10-09T01:19:24;95997.53;;;17.82;55.08
15007;BME280;7599;50.748;13.142;2023-10-09T01:22:29;95996.25;;;17.76;55.34
15007;BME280;7599;50.748;13.142;2023-10-09T01:25:33;95978.22;;;17.68;54.72
15007;BME280;7599;50.748;13.142;2023-10-09T01:28:44;95998.25;;;17.79;55.01
15007;BME280;7599;50.748;13.142;2023-10-09T01:31:49;95987.28;;;17.75;55.12
15007;BME280;7599;50.748;13.142;2023-10-09T01:34:57;95984.28;;;17.80;55.20
15007;BME280;7599;50.748;13.142;2023-10-09T01:38:00;95975.34;;;17.80;55.26
15007;BME280;7599;50.748;13.142;2023-10-09T01:41:05;95966.78;;;17.78;54.88
15007;BME280;7599;50.748;13.142;2023-10-09T01:44:09;95954.34;;;17.77;55.28
15007;BME280;7599;50.748;13.142;2023-10-09T01:47:14;95936.28;;;17.69;55.17
15007;BME280;7599;50.748;13.142;2023-10-09T01:50:20;95946.19;;;17.77;55.00
15007;BME280;7599;50.748;13.142;2023-10-09T01:53:26;95945.03;;;17.78;54.98
15007;BME280;7599;50.748;13.142;2023-10-09T01:56:33;95938.72;;;17.74;55.25
15007;BME280;7599;50.748;13.142;2023-10-09T01:59:41;95935.31;;;17.77;55.18
15007;BME280;7599;50.748;13.142;2023-10-09T02:02:47;95935.31;;;17.77;55.04
15007;BME280;7599;50.748;13.142;2023-10-09T02:05:52;95943.81;;;17.75;55.24
15007;BME280;7599;50.748;13.142;2023-10-09T02:09:01;95932.94;;;17.75;55.22
15007;BME280;7599;50.748;13.142;2023-10-09T02:12:09;95928.28;;;17.76;55.19
15007;BME280;7599;50.748;13.142;2023-10-09T02:15:12;95914.53;;;17.69;55.17
15007;BME280;7599;50.748;13.142;2023-10-09T02:18:18;95904.00;;;17.67;54.70
15007;BME280;7599;50.748;13.142;2023-10-09T02:21:27;95909.94;;;17.73;55.28
15007;BME280;7599;50.748;13.142;2023-10-09T02:24:36;95909.63;;;17.74;55.00
15007;BME280;7599;50.748;13.142;2023-10-09T02:27:52;95896.38;;;17.73;55.29
15007;BME280;7599;50.748;13.142;2023-10-09T02:30:56;95907.69;;;17.75;55.29
15007;BME280;7599;50.748;13.142;2023-10-09T02:34:02;95891.72;;;17.73;55.43
15007;BME280;7599;50.748;13.142;2023-10-09T02:37:12;95865.91;;;17.64;54.85
15007;BME280;7599;50.748;13.142;2023-10-09T02:40:15;95867.03;;;17.63;55.32
15007;BME280;7599;50.748;13.142;2023-10-09T02:43:33;95860.59;;;17.71;55.26
15007;BME280;7599;50.748;13.142;2023-10-09T02:46:46;95862.97;;;17.72;55.12
15007;BME280;7599;50.748;13.142;2023-10-09T02:49:48;95853.16;;;17.68;55.17
15007;BME280;7599;50.748;13.142;2023-10-09T02:52:51;95853.22;;;17.71;55.22
15007;BME280;7599;50.748;13.142;2023-10-09T02:56:01;95843.50;;;17.70;54.87
15007;BME280;7599;50.748;13.142;2023-10-09T02:59:15;95831.06;;;17.69;55.25
15007;BME280;7599;50.748;13.142;2023-10-09T03:02:18;95827.97;;;17.71;55.33
15007;BME280;7599;50.748;13.142;2023-10-09T03:05:21;95815.84;;;17.65;55.31
15007;BME280;7599;50.748;13.142;2023-10-09T03:08:28;95805.34;;;17.63;55.28
15007;BME280;7599;50.748;13.142;2023-10-09T03:11:31;95783.53;;;17.59;55.62
15007;BME280;7599;50.748;13.142;2023-10-09T03:14:37;95794.16;;;17.68;55.64
15007;BME280;7599;50.748;13.142;2023-10-09T03:17:41;95776.56;;;17.62;55.52
15007;BME280;7599;50.748;13.142;2023-10-09T03:20:44;95776.50;;;17.58;55.17
15007;BME280;7599;50.748;13.142;2023-10-09T03:23:48;95787.94;;;17.68;55.31
15007;BME280;7599;50.748;13.142;2023-10-09T03:26:51;95764.81;;;17.54;55.18
15007;BME280;7599;50.748;13.142;2023-10-09T03:29:58;95777.72;;;17.61;55.43
15007;BME280;7599;50.748;13.142;2023-10-09T03:33:03;95782.84;;;17.66;55.42
15007;BME280;7599;50.748;13.142;2023-10-09T03:36:06;95784.78;;;17.66;55.61
15007;BME280;7599;50.748;13.142;2023-10-09T03:39:11;95775.44;;;17.63;55.60
15007;BME280;7599;50.748;13.142;2023-10-09T03:42:26;95782.84;;;17.66;55.70
15007;BME280;7599;50.748;13.142;2023-10-09T03:45:30;95771.06;;;17.58;55.78
15007;BME280;7599;50.748;13.142;2023-10-09T03:48:36;95769.94;;;17.59;55.50
15007;BME280;7599;50.748;13.142;2023-10-09T03:51:39;95772.66;;;17.59;55.34
15007;BME280;7599;50.748;13.142;2023-10-09T03:54:43;95779.72;;;17.64;55.39
15007;BME280;7599;50.748;13.142;2023-10-09T03:57:47;95773.38;;;17.56;55.51
15007;BME280;7599;50.748;13.142;2023-10-09T04:00:51;95781.16;;;17.58;55.88
15007;BME280;7599;50.748;13.142;2023-10-09T04:03:54;95780.06;;;17.63;55.75
15007;BME280;7599;50.748;13.142;2023-10-09T04:07:01;95767.56;;;17.58;55.55
15007;BME280;7599;50.748;13.142;2023-10-09T04:10:05;95769.16;;;17.59;55.82
15007;BME280;7599;50.748;13.142;2023-10-09T04:13:31;95764.91;;;17.62;55.54
15007;BME280;7599;50.748;13.142;2023-10-09T04:16:38;95776.56;;;17.62;55.92
15007;BME280;7599;50.748;13.142;2023-10-09T04:19:53;95757.31;;;17.48;55.83
15007;BME280;7599;50.748;13.142;2023-10-09T04:23:09;95774.88;;;17.54;55.99
15007;BME280;7599;50.748;13.142;2023-10-09T04:26:17;95773.44;;;17.60;55.50
15007;BME280;7599;50.748;13.142;2023-10-09T04:29:23;95780.03;;;17.59;55.81
15007;BME280;7599;50.748;13.142;2023-10-09T04:32:30;95766.72;;;17.54;55.71
15007;BME280;7599;50.748;13.142;2023-10-09T04:35:33;95766.72;;;17.54;55.83
15007;BME280;7599;50.748;13.142;2023-10-09T04:38:36;95763.97;;;17.50;55.81
15007;BME280;7599;50.748;13.142;2023-10-09T04:41:38;95786.25;;;17.59;55.90
15007;BME280;7599;50.748;13.142;2023-10-09T04:44:53;95779.22;;;17.58;55.99
15007;BME280;7599;50.748;13.142;2023-10-09T04:48:21;95777.66;;;17.57;55.91
15007;BME280;7599;50.748;13.142;2023-10-09T04:51:35;95777.66;;;17.57;55.96
15007;BME280;7599;50.748;13.142;2023-10-09T04:54:38;95757.69;;;17.46;56.10
15007;BME280;7599;50.748;13.142;2023-10-09T04:57:45;95764.38;;;17.52;56.07
15007;BME280;7599;50.748;13.142;2023-10-09T05:01:03;95744.94;;;17.50;55.77
15007;BME280;7599;50.748;13.142;2023-10-09T05:04:15;95747.34;;;17.55;55.87
15007;BME280;7599;50.748;13.142;2023-10-09T05:07:36;95735.31;;;17.56;56.06
15007;BME280;7599;50.748;13.142;2023-10-09T05:10:58;95731.81;;;17.56;55.78
15007;BME280;7599;50.748;13.142;2023-10-09T05:14:20;95738.41;;;17.55;56.06
15007;BME280;7599;50.748;13.142;2023-10-09T05:17:39;95739.19;;;17.55;56.10
15007;BME280;7599;50.748;13.142;2023-10-09T05:20:54;95738.41;;;17.55;55.77
15007;BME280;7599;50.748;13.142;2023-10-09T05:24:19;95734.09;;;17.54;56.04
15007;BME280;7599;50.748;13.142;2023-10-09T05:27:25;95721.91;;;17.44;56.22
15007;BME280;7599;50.748;13.142;2023-10-09T05:30:41;95737.91;;;17.49;55.77
15007;BME280;7599;50.748;13.142;2023-10-09T05:33:44;95724.28;;;17.46;55.86
15007;BME280;7599;50.748;13.142;2023-10-09T05:36:48;95732.91;;;17.51;56.09
15007;BME280;7599;50.748;13.142;2023-10-09T05:39:50;95726.25;;;17.49;56.00
15007;BME280;7599;50.748;13.142;2023-10-09T05:43:21;95729.81;;;17.53;55.78
15007;BME280;7599;50.748;13.142;2023-10-09T05:46:41;95736.03;;;17.53;56.15
15007;BME280;7599;50.748;13.142;2023-10-09T05:50:04;95717.28;;;17.45;55.85
15007;BME280;7599;50.748;13.142;2023-10-09T05:53:22;95717.69;;;17.47;56.02
15007;BME280;7599;50.748;13.142;2023-10-09T05:56:50;95731.22;;;17.43;56.17
15007;BME280;7599;50.748;13.142;2023-10-09T06:00:11;95731.63;;;17.45;55.92
15007;BME280;7599;50.748;13.142;2023-10-09T06:03:31;95739.00;;;17.45;55.98
15007;BME280;7599;50.748;13.142;2023-10-09T06:06:50;95751.94;;;17.51;56.38
15007;BME280;7599;50.748;13.142;2023-10-09T06:09:59;95750.00;;;17.52;56.18
15007;BME280;7599;50.748;13.142;2023-10-09T06:13:12;95744.50;;;17.48;56.76
15007;BME280;7599;50.748;13.142;2023-10-09T06:16:28;95743.31;;;17.46;57.09
15007;BME280;7599;50.748;13.142;2023-10-09T06:19:43;95743.72;;;17.48;58.53
15007;BME280;7599;50.748;13.142;2023-10-09T06:22:46;95758.81;;;17.68;58.92
15007;BME280;7599;50.748;13.142;2023-10-09T06:26:01;95769.81;;;17.75;57.67
15007;BME280;7599;50.748;13.142;2023-10-09T06:29:25;95757.06;;;17.79;56.89
15007;BME280;7599;50.748;13.142;2023-10-09T06:32:37;95756.81;;;17.88;56.66
15007;BME280;7599;50.748;13.142;2023-10-09T06:35:50;95751.03;;;17.90;56.41
15007;BME280;7599;50.748;13.142;2023-10-09T06:38:55;95746.97;;;18.03;55.99
15007;BME280;7599;50.748;13.142;2023-10-09T06:42:19;95756.81;;;18.11;56.09
15007;BME280;7599;50.748;13.142;2023-10-09T06:45:35;95752.59;;;18.17;55.84
15007;BME280;7599;50.748;13.142;2023-10-09T06:48:46;95757.72;;;18.22;55.47
15007;BME280;7599;50.748;13.142;2023-10-09T06:51:58;95761.28;;;18.26;56.33
15007;BME280;7599;50.748;13.142;2023-10-09T06:55:16;95753.44;;;18.21;55.67
15007;BME280;7599;50.748;13.142;2023-10-09T06:58:22;95789.13;;;18.43;55.90
15007;BME280;7599;50.748;13.142;2023-10-09T07:01:27;95787.22;;;18.47;55.56
15007;BME280;7599;50.748;13.142;2023-10-09T07:04:38;95790.81;;;18.54;55.35
15007;BME280;7599;50.748;13.142;2023-10-09T07:07:58;95787.38;;;18.57;55.31
15007;BME280;7599;50.748;13.142;2023-10-09T07:11:21;95780.88;;;18.66;54.35
15007;BME280;7599;50.748;13.142;2023-10-09T07:14:25;95779.78;;;18.70;54.45
15007;BME280;7599;50.748;13.142;2023-10-09T07:17:45;95797.75;;;18.75;54.69
15007;BME280;7599;50.748;13.142;2023-10-09T07:20:49;95783.66;;;18.69;54.18
15007;BME280;7599;50.748;13.142;2023-10-09T07:24:06;95798.56;;;18.79;54.52
15007;BME280;7599;50.748;13.142;2023-10-09T07:27:24;95807.06;;;18.74;54.37
15007;BME280;7599;50.748;13.142;2023-10-09T07:30:43;95817.25;;;18.80;54.01
15007;BME280;7599;50.748;13.142;2023-10-09T07:33:45;95811.34;;;18.75;54.04
15007;BME280;7599;50.748;13.142;2023-10-09T07:36:58;95803.56;;;18.73;54.56
15007;BME280;7599;50.748;13.142;2023-10-09T07:40:06;95819.94;;;18.77;54.60
15007;BME280;7599;50.748;13.142;2023-10-09T07:43:09;95800.50;;;18.78;54.96
15007;BME280;7599;50.748;13.142;2023-10-09T07:46:19;95810.09;;;18.69;54.80
15007;BME280;7599;50.748;13.142;2023-10-09T07:49:35;95813.25;;;18.71;54.49
15007;BME280;7599;50.748;13.142;2023-10-09T07:52:39;95828.06;;;18.73;54.88
15007;BME280;7599;50.748;13.142;2023-10-09T07:55:46;95831.94;;;18.72;54.72
15007;BME280;7599;50.748;13.142;2023-10-09T07:58:56;95813.06;;;18.60;54.29
15007;BME280;7599;50.748;13.142;2023-10-09T08:02:03;95836.28;;;18.77;54.31
15007;BME280;7599;50.748;13.142;2023-10-09T08:05:07;95839.41;;;18.79;54.53
15007;BME280;7599;50.748;13.142;2023-10-09T08:08:26;95836.28;;;18.77;54.23
15007;BME280;7599;50.748;13.142;2023-10-09T08:12:23;95847.69;;;18.86;53.88
15007;BME280;7599;50.748;13.142;2023-10-09T08:16:06;95833.28;;;18.86;53.96
15007;BME280;7599;50.748;13.142;2023-10-09T08:19:33;95826.25;;;18.84;53.99
15007;BME280;7599;50.748;13.142;2023-10-09T08:22:53;95820.06;;;18.88;54.13
15007;BME280;7599;50.748;13.142;2023-10-09T08:25:59;95852.53;;;19.00;53.57
15007;BME280;7599;50.748;13.142;2023-10-09T08:29:11;95850.97;;;18.99;54.62
15007;BME280;7599;50.748;13.142;2023-10-09T08:32:21;95844.81;;;19.05;54.15
15007;BME280;7599;50.748;13.142;2023-10-09T08:35:44;95853.81;;;19.09;53.68
15007;BME280;7599;50.748;13.142;2023-10-09T08:38:50;95857.38;;;19.14;53.55
15007;BME280;7599;50.748;13.142;2023-10-09T08:41:59;95867.94;;;19.19;53.48
15007;BME280;7599;50.748;13.142;2023-10-09T08:45:07;95869.94;;;19.22;53.52
15007;BME280;7599;50.748;13.142;2023-10-09T08:48:11;95860.13;;;19.17;53.35
15007;BME280;7599;50.748;13.142;2023-10-09T08:51:19;95861.81;;;19.25;53.38
15007;BME280;7599;50.748;13.142;2023-10-09T08:54:22;95852.47;;;19.26;53.00
15007;BME280;7599;50.748;13.142;2023-10-09T08:57:25;95860.25;;;19.28;53.10
15007;BME280;7599;50.748;13.142;2023-10-09T09:00:28;95851.59;;;19.19;53.20
15007;BME280;7599;50.748;13.142;2023-10-09T09:03:38;95864.53;;;19.25;53.16
15007;BME280;7599;50.748;13.142;2023-10-09T09:06:43;95853.91;;;19.17;53.42
15007;BME280;7599;50.748;13.142;2023-10-09T09:09:54;95856.16;;;19.11;53.29
15007;BME280;7599;50.748;13.142;2023-10-09T09:12:58;95869.94;;;19.22;53.45
15007;BME280;7599;50.748;13.142;2023-10-09T09:16:05;95864.72;;;19.09;53.24
15007;BME280;7599;50.748;13.142;2023-10-09T09:19:08;95880.78;;;19.18;53.17
15007;BME280;7599;50.748;13.142;2023-10-09T09:22:21;95886.22;;;19.18;53.26
15007;BME280;7599;50.748;13.142;2023-10-09T09:25:24;95863.25;;;19.16;53.55
15007;BME280;7599;50.748;13.142;2023-10-09T09:28:51;95875.00;;;19.23;52.96
15007;BME280;7599;50.748;13.142;2023-10-09T09:31:56;95864.53;;;19.25;53.15
15007;BME280;7599;50.748;13.142;2023-10-09T09:35:12;95865.72;;;19.28;53.19
15007;BME280;7599;50.748;13.142;2023-10-09T09:38:22;95856.78;;;19.31;53.04
15007;BME280;7599;50.748;13.142;2023-10-09T09:41:27;95845.50;;;19.29;53.00
15007;BME280;7599;50.748;13.142;2023-10-09T09:44:31;95842.06;;;19.36;52.66
15007;BME280;7599;50.748;13.142;2023-10-09T09:47:37;95862.75;;;19.40;53.13
15007;BME280;7599;50.748;13.142;2023-10-09T09:50:40;95845.16;;;19.34;52.58
15007;BME280;7599;50.748;13.142;2023-10-09T09:53:48;95864.00;;;19.46;52.75
15007;BME280;7599;50.748;13.142;2023-10-09T09:56:53;95861.28;;;19.50;52.54
15007;BME280;7599;50.748;13.142;2023-10-09T09:59:56;95864.81;;;19.50;52.81
15007;BME280;7599;50.748;13.142;2023-10-09T10:03:05;95849.44;;;19.35;54.62
15007;BME280;7599;50.748;13.142;2023-10-09T10:06:11;95850.81;;;19.52;53.93
15007;BME280;7599;50.748;13.142;2023-10-09T10:09:38;95840.31;;;19.54;53.67
15007;BME280;7599;50.748;13.142;2023-10-09T10:12:50;95835.56;;;19.47;53.33
15007;BME280;7599;50.748;13.142;2023-10-09T10:16:05;95835.16;;;19.45;53.17
15007;BME280;7599;50.748;13.142;2023-10-09T10:19:15;95836.41;;;19.51;53.37
15007;BME280;7599;50.748;13.142;2023-10-09T10:22:25;95821.22;;;19.54;53.34
15007;BME280;7599;50.748;13.142;2023-10-09T10:25:34;95826.28;;;19.52;53.22
15007;BME280;7599;50.748;13.142;2023-10-09T10:28:43;95832.88;;;19.51;52.98
15007;BME280;7599;50.748;13.142;2023-10-09T10:31:52;95829.34;;;19.47;52.99
15007;BME280;7599;50.748;13.142;2023-10-09T10:34:56;95834.38;;;19.45;53.33
15007;BME280;7599;50.748;13.142;2023-10-09T10:37:59;95808.94;;;19.33;53.38
15007;BME280;7599;50.748;13.142;2023-10-09T10:41:15;95798.41;;;19.32;53.44
15007;BME280;7599;50.748;13.142;2023-10-09T10:44:25;95779.22;;;19.21;53.35
15007;BME280;7599;50.748;13.142;2023-10-09T10:47:38;95780.34;;;19.17;53.60
15007;BME280;7599;50.748;13.142;2023-10-09T10:50:43;95793.28;;;19.27;53.36
15007;BME280;7599;50.748;13.142;2023-10-09T10:53:51;95789.78;;;19.26;53.75
15007;BME280;7599;50.748;13.142;2023-10-09T10:57:20;95782.31;;;19.20;53.43
15007;BME280;7599;50.748;13.142;2023-10-09T11:00:31;95788.59;;;19.24;53.43
15007;BME280;7599;50.748;13.142;2023-10-09T11:03:52;95790.16;;;19.25;53.80
15007;BME280;7599;50.748;13.142;2023-10-09T11:06:58;95779.66;;;19.27;53.69
15007;BME280;7599;50.748;13.142;2023-10-09T11:10:08;95785.53;;;19.29;53.80
15007;BME280;7599;50.748;13.142;2023-10-09T11:13:23;95763.66;;;19.22;53.71
15007;BME280;7599;50.748;13.142;2023-10-09T11:16:36;95769.59;;;19.31;53.39
15007;BME280;7599;50.748;13.142;2023-10-09T11:19:44;95764.22;;;19.38;53.33
15007;BME280;7599;50.748;13.142;2023-10-09T11:22:47;95758.81;;;19.42;53.09
15007;BME280;7599;50.748;13.142;2023-10-09T11:26:13;95751.81;;;19.44;53.03
15007;BME280;7599;50.748;13.142;2023-10-09T11:29:28;95747.97;;;19.49;52.74
15007;BME280;7599;50.748;13.142;2023-10-09T11:33:04;95739.81;;;19.52;53.26
15007;BME280;7599;50.748;13.142;2023-10-09T11:36:07;95733.22;;;19.57;52.74
15007;BME280;7599;50.748;13.142;2023-10-09T11:39:24;95715.25;;;19.49;53.09
15007;BME280;7599;50.748;13.142;2023-10-09T11:42:34;95737.91;;;19.56;52.83
15007;BME280;7599;50.748;13.142;2023-10-09T11:45:51;95747.28;;;19.59;53.03
15007;BME280;7599;50.748;13.142;2023-10-09T11:49:03;95739.13;;;19.59;52.76
15007;BME280;7599;50.748;13.142;2023-10-09T11:52:27;95729.31;;;19.54;52.61
15007;BME280;7599;50.748;13.142;2023-10-09T11:55:38;95734.41;;;19.56;52.62
15007;BME280;7599;50.748;13.142;2023-10-09T11:58:40;95730.84;;;19.52;53.20
15007;BME280;7599;50.748;13.142;2023-10-09T12:01:47;95721.09;;;19.47;54.19
15007;BME280;7599;50.748;13.142;2023-10-09T12:04:55;95726.16;;;19.49;53.77
15007;BME280;7599;50.748;13.142;2023-10-09T12:07:58;95724.66;;;19.55;53.85
15007;BME280;7599;50.748;13.142;2023-10-09T12:11:03;95712.88;;;19.44;54.30
15007;BME280;7599;50.748;13.142;2023-10-09T12:14:10;95730.44;;;19.46;54.01
15007;BME280;7599;50.748;13.142;2023-10-09T12:17:14;95716.28;;;19.33;53.94
15007;BME280;7599;50.748;13.142;2023-10-09T12:20:19;95722.13;;;19.36;53.91
15007;BME280;7599;50.748;13.142;2023-10-09T12:23:32;95733.47;;;19.38;54.15
15007;BME280;7599;50.748;13.142;2023-10-09T12:26:37;95715.81;;;19.24;53.91
15007;BME280;7599;50.748;13.142;2023-10-09T12:29:40;95722.88;;;19.32;54.07
15007;BME280;7599;50.748;13.142;2023-10-09T12:32:51;95717.72;;;19.20;54.21
15007;BME280;7599;50.748;13.142;2023-10-09T12:35:55;95719.81;;;19.34;54.20
15007;BME280;7599;50.748;13.142;2023-10-09T12:39:01;95722.88;;;19.32;53.95
15007;BME280;7599;50.748;13.142;2023-10-09T12:42:04;95723.34;;;19.38;54.21
15007;BME280;7599;50.748;13.142;2023-10-09T12:45:11;95729.19;;;19.40;53.59
15007;BME280;7599;50.748;13.142;2023-10-09T12:48:15;95726.50;;;19.44;53.94
15007;BME280;7599;50.748;13.142;2023-10-09T12:51:18;95736.66;;;19.47;53.57
15007;BME280;7599;50.748;13.142;2023-10-09T12:54:21;95744.06;;;19.50;53.39
15007;BME280;7599;50.748;13.142;2023-10-09T12:57:29;95751.50;;;19.53;53.43
15007;BME280;7599;50.748;13.142;2023-10-09T13:00:33;95744.53;;;19.55;53.28
15007;BME280;7599;50.748;13.142;2023-10-09T13:03:40;95744.56;;;19.59;53.44
15007;BME280;7599;50.748;13.142;2023-10-09T13:06:43;95744.22;;;19.61;53.04
15007;BME280;7599;50.748;13.142;2023-10-09T13:09:47;95737.09;;;19.52;53.45
15007;BME280;7599;50.748;13.142;2023-10-09T13:13:10;95736.38;;;19.59;53.15
15007;BME280;7599;50.748;13.142;2023-10-09T13:16:14;95739.88;;;19.59;53.33
15007;BME280;7599;50.748;13.142;2023-10-09T13:19:26;95742.63;;;19.59;53.08
15007;BME280;7599;50.748;13.142;2023-10-09T13:22:29;95738.31;;;19.58;53.36
15007;BME280;7599;50.748;13.142;2023-10-09T13:25:32;95724.16;;;19.46;53.39
15007;BME280;7599;50.748;13.142;2023-10-09T13:28:41;95728.78;;;19.38;53.19
15007;BME280;7599;50.748;13.142;2023-10-09T13:31:46;95758.88;;;19.49;54.03
15007;BME280;7599;50.748;13.142;2023-10-09T13:34:51;95753.06;;;19.54;53.66
15007;BME280;7599;50.748;13.142;2023-10-09T13:37:56;95756.19;;;19.52;53.98
15007;BME280;7599;50.748;13.142;2023-10-09T13:40:59;95754.97;;;19.50;53.67
15007;BME280;7599;50.748;13.142;2023-10-09T13:44:03;95756.13;;;19.49;54.06
15007;BME280;7599;50.748;13.142;2023-10-09T13:47:06;95755.34;;;19.48;53.61
15007;BME280;7599;50.748;13.142;2023-10-09T13:50:23;95753.06;;;19.50;53.44
15007;BME280;7599;50.748;13.142;2023-10-09T13:53:32;95746.44;;;19.51;54.00
15007;BME280;7599;50.748;13.142;2023-10-09T13:56:36;95749.56;;;19.53;53.36
15007;BME280;7599;50.748;13.142;2023-10-09T13:59:41;95741.03;;;19.55;53.69
15007;BME280;7599;50.748;13.142;2023-10-09T14:02:50;95733.97;;;19.50;53.26
15007;BME280;7599;50.748;13.142;2023-10-09T14:05:54;95734.31;;;19.49;53.32
15007;BME280;7599;50.748;13.142;2023-10-09T14:08:59;95751.94;;;19.58;53.60
15007;BME280;7599;50.748;13.142;2023-10-09T14:12:04;95734.78;;;19.58;53.32
15007;BME280;7599;50.748;13.142;2023-10-09T14:15:11;95719.19;;;19.51;53.60
15007;BME280;7599;50.748;13.142;2023-10-09T14:18:19;95738.31;;;19.58;53.24
15007;BME280;7599;50.748;13.142;2023-10-09T14:21:22;95735.56;;;19.58;53.47
15007;BME280;7599;50.748;13.142;2023-10-09T14:24:27;95742.63;;;19.59;53.65
15007;BME280;7599;50.748;13.142;2023-10-09T14:27:34;95736.81;;;19.61;53.32
15007;BME280;7599;50.748;13.142;2023-10-09T14:30:37;95743.47;;;19.64;53.25
15007;BME280;7599;50.748;13.142;2023-10-09T14:33:44;95743.06;;;19.65;53.07
15007;BME280;7599;50.748;13.142;2023-10-09T14:36:54;95742.69;;;19.67;53.16
15007;BME280;7599;50.748;13.142;2023-10-09T14:39:57;95746.63;;;19.69;53.10
15007;BME280;7599;50.748;13.142;2023-10-09T14:43:00;95726.69;;;19.62;52.99
15007;BME280;7599;50.748;13.142;2023-10-09T14:46:04;95748.59;;;19.72;52.90
15007;BME280;7599;50.748;13.142;2023-10-09T14:49:12;95746.25;;;19.74;53.09
15007;BME280;7599;50.748;13.142;2023-10-09T14:52:17;95750.19;;;19.77;52.79
15007;BME280;7599;50.748;13.142;2023-10-09T14:55:20;95741.63;;;19.78;52.87
15007;BME280;7599;50.748;13.142;2023-10-09T14:58:30;95745.56;;;19.81;53.13
15007;BME280;7599;50.748;13.142;2023-10-09T15:01:36;95748.72;;;19.87;52.75
15007;BME280;7599;50.748;13.142;2023-10-09T15:04:39;95745.34;;;20.11;52.27
15007;BME280;7599;50.748;13.142;2023-10-09T15:07:43;95751.31;;;20.27;52.62
15007;BME280;7599;50.748;13.142;2023-10-09T15:10:48;95754.88;;;20.35;52.72
15007;BME280;7599;50.748;13.142;2023-10-09T15:13:53;95743.97;;;20.35;52.86
15007;BME280;7599;50.748;13.142;2023-10-09T15:16:55;95746.75;;;20.46;52.56
15007;BME280;7599;50.748;13.142;2023-10-09T15:19:59;95747.13;;;20.44;53.04
15007;BME280;7599;50.748;13.142;2023-10-09T15:23:05;95744.00;;;20.46;52.94
15007;BME280;7599;50.748;13.142;2023-10-09T15:26:08;95741.28;;;20.42;52.91
15007;BME280;7599;50.748;13.142;2023-10-09T15:29:11;95746.75;;;20.42;52.96
15007;BME280;7599;50.748;13.142;2023-10-09T15:32:14;95743.66;;;20.47;53.16
15007;BME280;7599;50.748;13.142;2023-10-09T15:35:23;95752.25;;;20.49;53.41
15007;BME280;7599;50.748;13.142;2023-10-09T15:38:27;95768.66;;;20.53;53.30
15007;BME280;7599;50.748;13.142;2023-10-09T15:41:30;95752.31;;;20.56;53.22
15007;BME280;7599;50.748;13.142;2023-10-09T15:44:34;95764.81;;;20.61;53.27
15007;BME280;7599;50.748;13.142;2023-10-09T15:47:38;95767.94;;;20.67;53.01
15007;BME280;7599;50.748;13.142;2023-10-09T15:50:44;95768.22;;;20.47;53.77
15007;BME280;7599;50.748;13.142;2023-10-09T15:53:51;95768.19;;;20.44;53.75
15007;BME280;7599;50.748;13.142;2023-10-09T15:56:53;95759.13;;;20.32;53.72
15007;BME280;7599;50.748;13.142;2023-10-09T16:00:03;95761.13;;;20.36;53.64
15007;BME280;7599;50.748;13.142;2023-10-09T16:03:15;95764.97;;;20.27;53.77
15007;BME280;7599;50.748;13.142;2023-10-09T16:06:18;95771.63;;;20.30;53.46
15007;BME280;7599;50.748;13.142;2023-10-09T16:09:22;95770.81;;;20.26;53.68
15007;BME280;7599;50.748;13.142;2023-10-09T16:12:26;95781.69;;;20.22;53.84
15007;BME280;7599;50.748;13.142;2023-10-09T16:15:32;95780.91;;;20.18;53.81
15007;BME280;7599;50.748;13.142;2023-10-09T16:18:35;95789.44;;;20.13;54.00
15007;BME280;7599;50.748;13.142;2023-10-09T16:21:39;95781.22;;;20.09;54.16
15007;BME280;7599;50.748;13.142;2023-10-09T16:24:43;95781.97;;;20.06;53.83
15007;BME280;7599;50.748;13.142;2023-10-09T16:27:46;95785.44;;;20.00;54.02
15007;BME280;7599;50.748;13.142;2023-10-09T16:30:49;95783.88;;;19.99;53.92
15007;BME280;7599;50.748;13.142;2023-10-09T16:33:51;95789.72;;;20.01;54.09
15007;BME280;7599;50.748;13.142;2023-10-09T16:36:54;95789.72;;;20.01;54.20
15007;BME280;7599;50.748;13.142;2023-10-09T16:39:58;95798.34;;;20.03;53.77